Time;durP1;ratioP1;P1;durP2;ratioP2;P2;SDS_P1;SDS_P2;PMS_P1;PMS_P2;Temp;Humidity;BMP_temperature;BMP_pressure;BME280_temperature;BME280_humidity;BME280_pressure;Samples;Min_cycle;Max_cycle;Signal;HPM_P1;HPM_P2
2022/02/16 00:01:00;;;;;;;27.17;20.70;;;8.60;99.90;;;;;;4982592;28;25064;-69
2022/02/16 00:03:25;;;;;;;27.38;22.00;;;8.70;99.90;;;;;;4987120;28;25067;-70
2022/02/16 00:05:51;;;;;;;28.48;21.23;;;8.60;99.90;;;;;;4984783;28;25061;-69
2022/02/16 00:08:17;;;;;;;27.05;21.35;;;8.60;99.90;;;;;;5004432;28;25145;-71
2022/02/16 00:10:42;;;;;;;24.13;20.58;;;8.60;99.90;;;;;;4987343;28;25069;-70
2022/02/16 00:13:08;;;;;;;21.60;19.38;;;8.60;99.90;;;;;;5010336;23;25106;-63
2022/02/16 00:15:34;;;;;;;24.42;21.20;;;8.70;99.90;;;;;;5008967;28;25054;-62
2022/02/16 00:17:59;;;;;;;34.38;22.05;;;8.70;99.90;;;;;;5008662;28;25067;-62
2022/02/16 00:20:25;;;;;;;30.15;22.17;;;8.70;99.90;;;;;;5000263;28;25097;-64
2022/02/16 00:22:51;;;;;;;26.63;19.05;;;8.70;99.90;;;;;;4988299;28;25071;-63
2022/02/16 00:25:16;;;;;;;26.70;20.05;;;8.70;99.90;;;;;;4988362;28;25074;-63
2022/02/16 00:27:42;;;;;;;30.75;22.42;;;8.70;99.90;;;;;;4987459;28;25122;-64
2022/02/16 00:30:08;;;;;;;28.02;21.08;;;8.70;99.90;;;;;;4986904;28;25088;-63
2022/02/16 00:32:34;;;;;;;34.70;23.13;;;8.70;99.90;;;;;;4987637;28;25049;-61
2022/02/16 00:35:00;;;;;;;32.20;21.30;;;8.70;99.90;;;;;;4987588;28;25125;-62
2022/02/16 00:37:25;;;;;;;25.10;21.02;;;8.80;99.90;;;;;;4987260;28;25092;-62
2022/02/16 00:39:51;;;;;;;28.80;20.35;;;8.80;99.90;;;;;;4986794;28;25141;-62
2022/02/16 00:42:16;;;;;;;30.58;20.73;;;8.80;99.90;;;;;;4987129;28;25152;-63
2022/02/16 00:44:42;;;;;;;29.23;19.98;;;8.80;99.90;;;;;;4987776;28;25082;-61
2022/02/16 00:47:07;;;;;;;26.02;19.50;;;8.80;99.90;;;;;;4987840;28;25063;-64
2022/02/16 00:49:33;;;;;;;30.58;19.02;;;8.80;99.90;;;;;;4986629;28;25066;-64
2022/02/16 00:51:58;;;;;;;42.00;23.02;;;8.80;99.90;;;;;;4987364;28;25146;-62
2022/02/16 00:54:24;;;;;;;33.03;19.23;;;8.80;99.90;;;;;;4989820;28;25160;-62
2022/02/16 00:56:49;;;;;;;33.67;20.50;;;8.80;99.90;;;;;;4992042;28;25082;-64
2022/02/16 00:59:15;;;;;;;33.33;18.98;;;8.80;99.90;;;;;;4973232;28;25056;-65
2022/02/16 01:01:40;;;;;;;40.60;21.98;;;8.80;99.90;;;;;;4990649;28;25076;-63
2022/02/16 01:04:06;;;;;;;32.70;18.33;;;8.80;99.90;;;;;;4991296;28;25153;-64
2022/02/16 01:06:31;;;;;;;39.33;20.23;;;8.80;99.90;;;;;;4992011;28;25128;-63
2022/02/16 01:08:57;;;;;;;39.47;20.80;;;8.80;99.90;;;;;;4992281;28;25066;-63
2022/02/16 01:11:23;;;;;;;37.08;18.95;;;8.90;99.90;;;;;;4990863;28;25175;-63
2022/02/16 01:13:49;;;;;;;38.42;20.15;;;8.90;99.90;;;;;;4990969;28;25078;-64
2022/02/16 01:16:15;;;;;;;33.08;18.73;;;8.90;99.90;;;;;;4991141;28;25134;-63
2022/02/16 01:18:41;;;;;;;28.63;18.70;;;8.90;99.90;;;;;;4990112;28;25148;-63
2022/02/16 01:21:06;;;;;;;34.42;16.35;;;8.90;99.90;;;;;;4990198;28;25081;-62
2022/02/16 01:23:32;;;;;;;30.63;17.70;;;8.90;99.90;;;;;;4990325;28;25076;-64
2022/02/16 01:25:58;;;;;;;32.60;19.85;;;8.90;99.90;;;;;;4984058;28;25064;-63
2022/02/16 01:28:23;;;;;;;30.45;18.13;;;8.90;99.90;;;;;;4975436;28;24926;-63
2022/02/16 01:30:49;;;;;;;31.77;20.38;;;8.90;99.90;;;;;;4982429;28;25096;-63
2022/02/16 01:33:14;;;;;;;28.30;20.50;;;8.90;99.90;;;;;;4989744;28;25079;-63
2022/02/16 01:35:40;;;;;;;34.38;23.10;;;8.90;99.90;;;;;;4990152;28;25065;-64
2022/02/16 01:38:05;;;;;;;33.05;21.08;;;8.90;99.90;;;;;;4988701;28;25130;-62
2022/02/16 01:40:31;;;;;;;34.65;22.00;;;8.90;99.90;;;;;;4989827;28;25071;-63
2022/02/16 01:42:57;;;;;;;29.90;23.67;;;9.00;99.90;;;;;;4990381;28;25063;-63
2022/02/16 01:45:26;;;;;;;33.15;22.90;;;8.90;99.90;;;;;;4989909;28;25165;-63
2022/02/16 01:47:52;;;;;;;35.83;23.08;;;9.00;99.90;;;;;;4972423;28;25073;-63
2022/02/16 01:50:18;;;;;;;31.15;21.85;;;9.00;99.90;;;;;;4990122;28;25072;-62
2022/02/16 01:52:44;;;;;;;31.35;22.80;;;9.00;99.90;;;;;;4990862;28;25060;-61
2022/02/16 01:55:11;;;;;;;29.42;19.85;;;8.90;99.90;;;;;;4990295;28;25135;-62
2022/02/16 01:57:38;;;;;;;30.33;22.23;;;9.00;99.90;;;;;;4990423;28;25155;-61
2022/02/16 02:00:05;;;;;;;26.25;19.90;;;9.00;99.90;;;;;;4989874;28;25153;-62
2022/02/16 02:02:30;;;;;;;28.65;19.73;;;9.00;99.90;;;;;;4990191;28;25127;-62
2022/02/16 02:04:56;;;;;;;22.75;18.17;;;8.90;99.90;;;;;;4989665;28;25075;-62
2022/02/16 02:07:22;;;;;;;23.38;17.95;;;9.00;99.90;;;;;;4972912;28;25119;-62
2022/02/16 02:09:48;;;;;;;25.95;19.40;;;9.00;99.90;;;;;;4990285;28;25076;-62
2022/02/16 02:12:14;;;;;;;21.50;16.55;;;9.00;99.90;;;;;;4995585;28;25117;-64
2022/02/16 02:14:40;;;;;;;24.58;17.73;;;9.00;99.90;;;;;;4994852;28;25057;-63
2022/02/16 02:17:06;;;;;;;25.30;18.30;;;9.00;99.90;;;;;;4995299;28;25055;-63
2022/02/16 02:19:31;;;;;;;27.15;18.50;;;9.00;99.90;;;;;;4990739;28;25104;-63
2022/02/16 02:21:57;;;;;;;24.35;18.67;;;9.00;99.90;;;;;;4990299;28;25072;-63
2022/02/16 02:24:23;;;;;;;25.85;19.05;;;9.00;99.90;;;;;;4988180;28;25083;-63
2022/02/16 02:26:48;;;;;;;24.58;17.65;;;9.00;99.90;;;;;;4984270;28;25149;-64
2022/02/16 02:29:15;;;;;;;23.10;17.20;;;9.00;99.90;;;;;;4987487;28;25131;-63
2022/02/16 02:31:40;;;;;;;17.77;15.68;;;9.00;99.90;;;;;;4988879;28;25128;-62
2022/02/16 02:34:06;;;;;;;19.30;14.20;;;9.00;99.90;;;;;;4989530;28;25065;-64
2022/02/16 02:36:32;;;;;;;19.35;13.80;;;9.10;99.90;;;;;;4989511;28;25076;-63
2022/02/16 02:38:57;;;;;;;18.05;15.27;;;9.00;99.90;;;;;;4989199;28;25111;-61
2022/02/16 02:41:24;;;;;;;15.80;12.60;;;9.10;99.90;;;;;;4989380;28;25075;-61
2022/02/16 02:43:50;;;;;;;12.32;10.32;;;9.10;99.90;;;;;;4989563;28;25081;-62
2022/02/16 02:46:17;;;;;;;13.02;10.85;;;9.10;99.90;;;;;;4989886;28;25062;-61
2022/02/16 02:48:43;;;;;;;17.80;12.45;;;9.10;99.90;;;;;;4989522;28;25056;-63
2022/02/16 02:51:09;;;;;;;15.10;11.27;;;9.10;99.90;;;;;;4988970;28;25061;-61
2022/02/16 02:53:35;;;;;;;15.32;10.88;;;9.10;99.90;;;;;;4989135;28;25067;-62
2022/02/16 02:56:02;;;;;;;13.57;10.98;;;9.10;99.90;;;;;;4989056;28;25061;-61
2022/02/16 02:58:27;;;;;;;14.18;10.73;;;9.10;99.90;;;;;;4988551;28;25170;-61
2022/02/16 03:00:53;;;;;;;15.85;10.50;;;9.10;99.90;;;;;;4988598;28;25090;-61
2022/02/16 03:03:18;;;;;;;13.40;11.10;;;9.10;99.90;;;;;;4988635;28;25055;-61
2022/02/16 03:05:44;;;;;;;17.15;11.90;;;9.10;99.90;;;;;;4989066;28;25069;-61
2022/02/16 03:08:09;;;;;;;16.92;11.70;;;9.10;99.90;;;;;;4988111;28;25106;-61
2022/02/16 03:10:35;;;;;;;14.57;11.38;;;9.10;99.90;;;;;;4988518;28;25070;-61
2022/02/16 03:13:00;;;;;;;13.82;9.70;;;9.10;99.90;;;;;;4988094;28;25129;-61
2022/02/16 03:15:26;;;;;;;11.65;10.43;;;9.10;99.90;;;;;;4988201;28;25164;-62
2022/02/16 03:17:52;;;;;;;12.95;9.90;;;9.10;99.90;;;;;;4988908;28;25100;-62
2022/02/16 03:20:17;;;;;;;12.43;9.43;;;9.10;99.90;;;;;;4988760;28;25065;-61
2022/02/16 03:22:43;;;;;;;13.93;8.27;;;9.10;99.90;;;;;;4988428;28;25085;-62
2022/02/16 03:25:10;;;;;;;9.75;7.93;;;9.10;99.90;;;;;;4988310;28;25091;-63
2022/02/16 03:27:36;;;;;;;8.38;7.32;;;9.10;99.90;;;;;;4988550;28;25045;-61
2022/02/16 03:30:08;;;;;;;8.77;6.85;;;9.10;99.90;;;;;;4987984;28;25069;-62
2022/02/16 03:32:34;;;;;;;7.72;6.97;;;9.00;99.90;;;;;;4981733;28;25064;-62
2022/02/16 03:35:00;;;;;;;7.75;6.93;;;9.10;99.90;;;;;;4993763;28;25104;-63
2022/02/16 03:37:25;;;;;;;8.60;7.70;;;9.10;99.90;;;;;;4965321;28;25116;-64
2022/02/16 03:39:51;;;;;;;11.85;8.35;;;9.10;99.90;;;;;;4987141;28;25139;-63
2022/02/16 03:42:17;;;;;;;9.68;8.45;;;9.10;99.90;;;;;;4987345;28;25047;-62
2022/02/16 03:44:42;;;;;;;10.38;9.32;;;9.10;99.90;;;;;;4987931;28;25128;-62
2022/02/16 03:47:08;;;;;;;13.35;10.55;;;9.10;99.90;;;;;;4988034;28;25145;-63
2022/02/16 03:49:34;;;;;;;11.02;9.43;;;9.10;99.90;;;;;;4987874;28;25063;-64
2022/02/16 03:51:59;;;;;;;9.57;7.65;;;9.10;99.90;;;;;;4988106;28;25136;-63
2022/02/16 03:54:25;;;;;;;11.50;7.97;;;9.10;99.90;;;;;;4988075;28;25062;-63
2022/02/16 03:56:51;;;;;;;11.55;7.63;;;9.10;99.90;;;;;;4981881;28;25118;-63
2022/02/16 03:59:17;;;;;;;11.57;8.18;;;9.10;99.90;;;;;;4986462;28;25085;-63
2022/02/16 04:01:43;;;;;;;7.35;6.43;;;9.10;99.90;;;;;;4982409;28;25111;-62
2022/02/16 04:04:09;;;;;;;9.43;7.35;;;9.10;99.90;;;;;;4987615;28;25111;-63
2022/02/16 04:06:34;;;;;;;9.40;8.13;;;9.10;99.90;;;;;;4987184;28;25127;-61
2022/02/16 04:09:00;;;;;;;11.00;9.90;;;9.10;99.90;;;;;;4987576;28;25093;-61
2022/02/16 04:11:27;;;;;;;12.23;10.95;;;9.20;99.90;;;;;;4988775;28;25136;-63
2022/02/16 04:13:54;;;;;;;15.10;13.60;;;9.20;99.90;;;;;;4969871;28;25112;-62
2022/02/16 04:16:21;;;;;;;16.52;13.73;;;9.20;99.90;;;;;;4987702;28;25064;-62
2022/02/16 04:18:46;;;;;;;17.58;13.95;;;9.20;99.90;;;;;;4987400;28;25153;-62
2022/02/16 04:21:12;;;;;;;16.67;13.73;;;9.20;99.90;;;;;;4987285;28;25123;-62
2022/02/16 04:23:38;;;;;;;15.75;14.02;;;9.20;99.90;;;;;;4969135;28;25099;-62
2022/02/16 04:26:03;;;;;;;15.27;13.68;;;9.20;99.90;;;;;;4989531;28;25063;-61
2022/02/16 04:28:29;;;;;;;19.73;15.05;;;9.20;99.90;;;;;;4989633;28;25097;-60
2022/02/16 04:30:54;;;;;;;16.80;13.98;;;9.20;99.90;;;;;;4989167;28;25105;-61
2022/02/16 04:33:20;;;;;;;15.70;14.07;;;9.20;99.90;;;;;;4969219;28;25132;-60
2022/02/16 04:35:46;;;;;;;16.45;13.65;;;9.20;99.90;;;;;;4987638;28;25076;-62
2022/02/16 04:38:11;;;;;;;14.93;13.35;;;9.20;99.90;;;;;;4968593;28;25061;-61
2022/02/16 04:40:38;;;;;;;14.10;12.55;;;9.30;99.90;;;;;;4975240;28;25111;-62
2022/02/16 04:43:05;;;;;;;13.00;11.57;;;9.30;99.90;;;;;;4970575;28;25132;-63
2022/02/16 04:45:31;;;;;;;12.98;10.60;;;9.30;99.90;;;;;;4962460;28;25058;-60
2022/02/16 04:47:58;;;;;;;11.35;10.25;;;9.20;99.90;;;;;;4980794;28;25056;-60
2022/02/16 04:50:24;;;;;;;10.40;8.98;;;9.30;99.90;;;;;;4987922;28;25080;-60
2022/02/16 04:52:54;;;;;;;9.73;8.73;;;9.30;99.90;;;;;;4980704;28;25063;-61
2022/02/16 04:55:21;;;;;;;9.07;8.27;;;9.30;99.90;;;;;;4969514;28;25082;-64
2022/02/16 04:57:47;;;;;;;10.63;9.52;;;9.30;99.90;;;;;;4970404;28;25107;-61
2022/02/16 05:00:13;;;;;;;9.50;8.60;;;9.30;99.90;;;;;;4967719;28;25098;-62
2022/02/16 05:02:39;;;;;;;9.52;8.60;;;9.30;99.90;;;;;;4984129;28;25058;-61
2022/02/16 05:05:06;;;;;;;9.38;8.48;;;9.30;99.90;;;;;;4986535;28;25054;-61
2022/02/16 05:07:32;;;;;;;9.27;8.38;;;9.30;99.90;;;;;;4987281;28;25071;-62
2022/02/16 05:09:57;;;;;;;7.55;6.95;;;9.40;99.90;;;;;;4979737;28;25102;-62
2022/02/16 05:12:23;;;;;;;8.23;7.55;;;9.40;99.90;;;;;;4985993;28;25164;-63
2022/02/16 05:14:48;;;;;;;11.32;9.38;;;9.40;99.90;;;;;;4986560;28;25101;-61
2022/02/16 05:17:14;;;;;;;11.15;10.10;;;9.40;99.90;;;;;;4986040;28;25132;-63
2022/02/16 05:19:40;;;;;;;10.70;9.70;;;9.40;99.90;;;;;;4986668;28;25141;-62
2022/02/16 05:22:05;;;;;;;11.20;10.10;;;9.40;99.90;;;;;;4985678;28;25156;-62
2022/02/16 05:24:31;;;;;;;11.70;10.57;;;9.40;99.90;;;;;;4986275;28;25152;-63
2022/02/16 05:26:57;;;;;;;12.55;10.75;;;9.40;99.90;;;;;;4980280;28;25085;-63
2022/02/16 05:29:23;;;;;;;11.25;10.05;;;9.40;99.90;;;;;;4982538;28;25094;-65
2022/02/16 05:31:48;;;;;;;12.20;10.27;;;9.50;99.90;;;;;;4986005;28;25074;-65
2022/02/16 05:34:16;;;;;;;11.13;9.93;;;9.50;99.90;;;;;;4979798;28;25137;-64
2022/02/16 05:36:42;;;;;;;13.43;11.23;;;9.50;99.90;;;;;;4971844;28;25154;-63
2022/02/16 05:39:08;;;;;;;13.18;11.05;;;9.50;99.90;;;;;;4973375;28;25100;-66
2022/02/16 05:41:33;;;;;;;12.70;11.35;;;9.50;99.90;;;;;;4974584;28;25121;-64
2022/02/16 05:43:59;;;;;;;11.68;10.55;;;9.50;99.90;;;;;;4970491;28;25057;-63
2022/02/16 05:46:24;;;;;;;11.75;10.55;;;9.60;99.90;;;;;;4971553;28;25100;-64
2022/02/16 05:48:50;;;;;;;12.55;9.98;;;9.60;99.90;;;;;;4977242;28;25084;-62
2022/02/16 05:51:16;;;;;;;11.75;10.52;;;9.60;99.90;;;;;;4984494;28;25072;-63
2022/02/16 05:53:42;;;;;;;14.77;12.25;;;9.70;99.90;;;;;;5007764;23;25077;-69
2022/02/16 05:56:07;;;;;;;14.55;11.13;;;9.70;99.90;;;;;;5006412;28;25196;-70
2022/02/16 05:58:33;;;;;;;15.88;12.63;;;9.60;99.90;;;;;;5006021;28;25151;-69
2022/02/16 06:01:02;;;;;;;18.27;13.05;;;9.70;99.90;;;;;;4984470;28;25075;-69
2022/02/16 06:03:28;;;;;;;14.02;11.70;;;9.70;99.90;;;;;;5002165;28;25091;-68
2022/02/16 06:05:53;;;;;;;13.38;11.25;;;9.70;99.90;;;;;;5006709;28;25152;-71
2022/02/16 06:08:19;;;;;;;14.25;11.25;;;9.70;99.90;;;;;;5007087;28;25059;-72
2022/02/16 06:10:45;;;;;;;13.40;11.15;;;9.70;99.90;;;;;;5007045;28;25106;-68
2022/02/16 06:13:12;;;;;;;13.73;10.48;;;9.80;99.90;;;;;;5005699;28;25150;-69
2022/02/16 06:15:38;;;;;;;14.18;11.23;;;9.70;99.90;;;;;;4997581;28;25078;-71
2022/02/16 06:18:04;;;;;;;14.27;11.88;;;9.70;99.90;;;;;;5000325;28;25054;-69
2022/02/16 06:20:29;;;;;;;15.55;11.52;;;9.80;99.90;;;;;;4975455;28;25160;-69
2022/02/16 06:22:56;;;;;;;19.88;12.50;;;9.80;99.90;;;;;;4998903;28;25103;-70
2022/02/16 06:25:25;;;;;;;17.13;12.25;;;9.80;99.90;;;;;;5000770;28;25108;-69
2022/02/16 06:27:51;;;;;;;14.98;11.98;;;9.80;99.90;;;;;;5003705;28;25134;-67
2022/02/16 06:30:17;;;;;;;13.50;10.52;;;9.80;99.90;;;;;;5000351;28;25029;-71
2022/02/16 06:32:44;;;;;;;13.13;10.85;;;9.80;99.90;;;;;;4995315;28;25062;-71
2022/02/16 06:35:11;;;;;;;16.13;10.68;;;9.80;99.90;;;;;;5001258;28;25076;-69
2022/02/16 06:37:36;;;;;;;10.20;8.60;;;9.80;99.90;;;;;;4989479;28;25111;-71
2022/02/16 06:40:03;;;;;;;9.30;7.72;;;9.90;99.90;;;;;;4990233;28;25177;-72
2022/02/16 06:42:29;;;;;;;8.13;7.07;;;9.90;99.90;;;;;;5001554;28;25066;-69
2022/02/16 06:44:54;;;;;;;8.45;7.25;;;9.90;99.90;;;;;;5004764;28;25136;-70
2022/02/16 06:47:20;;;;;;;8.18;6.35;;;9.90;99.90;;;;;;5004841;28;25049;-72
2022/02/16 06:49:45;;;;;;;10.48;7.28;;;9.90;99.90;;;;;;5004238;28;25095;-70
2022/02/16 06:52:11;;;;;;;8.82;7.22;;;9.90;99.90;;;;;;4986871;28;25075;-69
2022/02/16 06:54:36;;;;;;;8.60;7.25;;;9.90;99.90;;;;;;5004021;28;25059;-69
2022/02/16 06:57:02;;;;;;;9.30;8.40;;;9.90;99.90;;;;;;5005546;28;25067;-69
2022/02/16 06:59:28;;;;;;;11.60;8.27;;;9.90;99.90;;;;;;5004620;28;25152;-71
2022/02/16 07:01:53;;;;;;;9.20;8.30;;;9.90;99.90;;;;;;5004988;28;25085;-69
2022/02/16 07:04:19;;;;;;;10.93;8.70;;;9.90;99.90;;;;;;5004433;28;25075;-71
2022/02/16 07:06:45;;;;;;;9.85;8.90;;;9.90;99.90;;;;;;5004128;28;25153;-70
2022/02/16 07:09:11;;;;;;;10.57;8.50;;;9.90;99.90;;;;;;5004361;28;25071;-72
2022/02/16 07:11:37;;;;;;;10.23;9.27;;;9.90;99.90;;;;;;5003984;28;25142;-70
2022/02/16 07:14:03;;;;;;;10.43;9.43;;;10.00;99.90;;;;;;5003941;28;25114;-70
2022/02/16 07:16:30;;;;;;;10.88;9.48;;;10.00;99.90;;;;;;5004600;28;25046;-70
2022/02/16 07:18:55;;;;;;;13.05;11.05;;;10.00;99.90;;;;;;4985908;28;25108;-69
2022/02/16 07:21:23;;;;;;;13.10;9.68;;;10.00;99.90;;;;;;5004908;28;25117;-68
2022/02/16 07:23:49;;;;;;;13.63;11.27;;;10.00;99.90;;;;;;4986341;28;25078;-71
2022/02/16 07:26:15;;;;;;;10.10;9.15;;;10.00;99.90;;;;;;5004987;28;25112;-70
2022/02/16 07:28:41;;;;;;;11.23;10.13;;;10.00;99.90;;;;;;5005047;28;25152;-71
2022/02/16 07:31:07;;;;;;;12.25;10.02;;;10.00;99.90;;;;;;5003873;28;25139;-69
2022/02/16 07:33:33;;;;;;;10.38;8.93;;;10.00;99.90;;;;;;5004577;28;25073;-68
2022/02/16 07:35:58;;;;;;;12.43;10.70;;;10.00;99.90;;;;;;5005514;28;25117;-66
2022/02/16 07:38:24;;;;;;;12.63;8.57;;;10.00;99.90;;;;;;5010464;28;25104;-67
2022/02/16 07:40:50;;;;;;;14.00;9.55;;;10.00;99.90;;;;;;5008929;28;25068;-68
2022/02/16 07:43:15;;;;;;;10.77;9.23;;;10.00;99.90;;;;;;5008380;28;25077;-68
2022/02/16 07:45:41;;;;;;;12.15;8.88;;;10.10;99.90;;;;;;4991028;28;25061;-70
2022/02/16 07:48:07;;;;;;;16.17;10.10;;;10.00;99.90;;;;;;4989369;28;25073;-68
2022/02/16 07:50:33;;;;;;;12.27;9.23;;;10.00;99.90;;;;;;5006366;28;25107;-69
2022/02/16 07:53:01;;;;;;;13.98;10.23;;;10.10;99.90;;;;;;4988633;28;25090;-67
2022/02/16 07:55:27;;;;;;;13.75;9.57;;;10.10;99.90;;;;;;4986599;28;25153;-70
2022/02/16 07:57:58;;;;;;;15.25;10.23;;;10.10;99.90;;;;;;5006282;28;25095;-69
2022/02/16 08:00:24;;;;;;;17.30;12.05;;;10.10;99.90;;;;;;5004239;28;25109;-68
2022/02/16 08:02:49;;;;;;;21.85;11.55;;;10.10;99.90;;;;;;5004393;28;25119;-68
2022/02/16 08:05:15;;;;;;;23.40;14.93;;;10.10;99.90;;;;;;5003706;28;25073;-69
2022/02/16 08:07:41;;;;;;;18.73;13.50;;;10.20;99.90;;;;;;5004841;28;25073;-70
2022/02/16 08:10:07;;;;;;;23.27;14.23;;;10.20;99.90;;;;;;5003253;28;25110;-71
2022/02/16 08:12:32;;;;;;;26.10;14.82;;;10.20;99.90;;;;;;5003111;28;25109;-69
2022/02/16 08:14:58;;;;;;;31.17;15.25;;;10.30;99.90;;;;;;5003619;28;25116;-70
2022/02/16 08:17:23;;;;;;;24.13;14.05;;;10.30;99.90;;;;;;5003633;28;25084;-72
2022/02/16 08:19:52;;;;;;;26.30;14.32;;;10.30;99.90;;;;;;5004379;28;25121;-71
2022/02/16 08:22:17;;;;;;;25.25;12.40;;;10.40;99.90;;;;;;5005990;28;25102;-71
2022/02/16 08:24:43;;;;;;;28.33;12.88;;;10.40;99.90;;;;;;5006438;28;25095;-72
2022/02/16 08:27:09;;;;;;;35.42;9.75;;;10.50;99.90;;;;;;4987996;28;25105;-70
2022/02/16 08:29:35;;;;;;;25.05;8.30;;;10.60;99.90;;;;;;5005087;28;25089;-70
2022/02/16 08:32:00;;;;;;;26.42;7.93;;;10.60;99.90;;;;;;4995874;28;25076;-68
2022/02/16 08:34:26;;;;;;;24.50;6.63;;;10.70;99.90;;;;;;4984467;28;25070;-70
2022/02/16 08:36:55;;;;;;;25.88;6.50;;;10.70;99.90;;;;;;4972548;28;25097;-69
2022/02/16 08:39:26;;;;;;;34.63;7.40;;;10.70;99.90;;;;;;5005633;28;25123;-67
2022/02/16 08:41:52;;;;;;;37.70;8.38;;;10.80;99.90;;;;;;5004236;28;25065;-67
2022/02/16 08:44:18;;;;;;;28.63;7.57;;;10.80;99.90;;;;;;5004835;28;25048;-69
2022/02/16 08:46:44;;;;;;;36.28;6.85;;;10.80;99.90;;;;;;5004802;28;25097;-68
2022/02/16 08:49:09;;;;;;;31.65;7.03;;;10.80;99.90;;;;;;5004503;28;25082;-68
2022/02/16 08:51:35;;;;;;;32.60;6.25;;;10.80;99.90;;;;;;5006265;28;25059;-69
2022/02/16 08:54:00;;;;;;;28.52;6.35;;;10.90;99.90;;;;;;5004728;28;25103;-70
2022/02/16 08:56:29;;;;;;;30.70;7.05;;;10.90;99.90;;;;;;4987931;28;25059;-69
2022/02/16 08:58:56;;;;;;;27.17;7.13;;;11.00;99.90;;;;;;5004934;28;25100;-67
2022/02/16 09:01:22;;;;;;;35.28;6.93;;;11.00;99.90;;;;;;5004469;28;25067;-69
2022/02/16 09:03:47;;;;;;;28.95;5.75;;;11.00;99.90;;;;;;5003523;28;25129;-71
2022/02/16 09:06:13;;;;;;;37.45;5.57;;;11.10;99.90;;;;;;5003341;28;25082;-71
2022/02/16 09:08:39;;;;;;;36.83;7.28;;;11.10;99.90;;;;;;5003687;28;25079;-70
2022/02/16 09:11:05;;;;;;;34.63;7.03;;;11.10;99.90;;;;;;5003753;28;25105;-71
2022/02/16 09:13:30;;;;;;;29.60;6.55;;;11.10;99.90;;;;;;5003821;28;25135;-70
2022/02/16 09:15:57;;;;;;;42.63;6.53;;;11.20;99.90;;;;;;5007435;28;25046;-68
2022/02/16 09:18:24;;;;;;;26.15;6.38;;;11.20;99.90;;;;;;5008335;28;25079;-73
2022/02/16 09:20:50;;;;;;;39.30;7.13;;;11.20;99.90;;;;;;5007029;28;25055;-71
2022/02/16 09:23:17;;;;;;;32.92;7.60;;;11.20;99.90;;;;;;5007662;28;25070;-70
2022/02/16 09:25:44;;;;;;;42.78;7.00;;;11.20;99.90;;;;;;5007452;28;25114;-72
2022/02/16 09:28:10;;;;;;;41.63;6.85;;;11.20;99.90;;;;;;5007230;28;25104;-70
2022/02/16 09:30:36;;;;;;;32.47;7.55;;;11.20;99.90;;;;;;4989211;28;25060;-72
2022/02/16 09:33:02;;;;;;;44.50;7.80;;;11.20;99.90;;;;;;5006849;28;25067;-70
2022/02/16 09:35:36;;;;;;;40.67;8.20;;;11.20;99.90;;;;;;5007349;28;25151;-68
2022/02/16 09:38:02;;;;;;;45.50;8.23;;;11.20;99.90;;;;;;4989480;28;25074;-70
2022/02/16 09:40:30;;;;;;;44.72;7.93;;;11.20;99.90;;;;;;5008017;28;25137;-68
2022/02/16 09:43:00;;;;;;;47.80;8.27;;;11.30;99.90;;;;;;5006904;28;25070;-68
2022/02/16 09:45:29;;;;;;;39.47;7.18;;;11.30;99.90;;;;;;5008040;28;25073;-69
2022/02/16 09:47:55;;;;;;;35.13;7.38;;;11.40;99.90;;;;;;4990781;28;25091;-69
2022/02/16 09:50:22;;;;;;;44.28;8.63;;;11.40;99.90;;;;;;5008279;28;25095;-69
2022/02/16 09:52:48;;;;;;;40.85;7.72;;;11.40;99.90;;;;;;5007576;28;25146;-70
2022/02/16 09:55:14;;;;;;;37.90;8.23;;;11.40;99.90;;;;;;4990319;28;25123;-68
2022/02/16 09:57:40;;;;;;;36.80;8.10;;;11.40;99.90;;;;;;5008375;28;25066;-69
2022/02/16 10:00:15;;;;;;;36.70;7.32;;;11.40;99.90;;;;;;5008028;28;25073;-71
2022/02/16 10:02:44;;;;;;;42.13;8.88;;;11.40;99.90;;;;;;5007104;28;25100;-71
2022/02/16 10:05:11;;;;;;;38.58;8.35;;;11.40;99.90;;;;;;4990019;28;25051;-72
2022/02/16 10:07:42;;;;;;;46.25;8.60;;;11.30;99.90;;;;;;5008303;28;25088;-71
2022/02/16 10:10:22;;;;;;;43.63;7.55;;;11.40;99.90;;;;;;5014616;28;25098;-73
2022/02/16 10:12:50;;;;;;;35.72;7.10;;;11.40;99.90;;;;;;4995401;28;25099;-70
2022/02/16 10:15:21;;;;;;;39.80;7.30;;;11.40;99.90;;;;;;4976012;28;25107;-70
2022/02/16 10:17:47;;;;;;;34.00;7.55;;;11.30;99.90;;;;;;5011474;28;25111;-69
2022/02/16 10:20:18;;;;;;;54.25;9.38;;;11.40;99.90;;;;;;5009094;28;25087;-69
2022/02/16 10:22:47;;;;;;;46.13;9.68;;;11.40;99.90;;;;;;5006740;28;25048;-71
2022/02/16 10:25:24;;;;;;;43.60;8.60;;;11.30;99.90;;;;;;5007450;28;25056;-71
2022/02/16 10:28:06;;;;;;;42.50;8.77;;;11.40;99.90;;;;;;5007137;28;25151;-70
2022/02/16 10:30:37;;;;;;;57.47;9.85;;;11.30;99.90;;;;;;5007564;28;25070;-70
2022/02/16 10:33:53;;;;;;;57.22;9.73;;;11.40;99.90;;;;;;4971583;28;25062;-70
2022/02/16 10:36:25;;;;;;;44.95;8.85;;;11.50;99.90;;;;;;4891323;29;25142;-71
2022/02/16 10:39:31;;;;;;;43.47;9.13;;;11.50;99.90;;;;;;4927591;29;25077;-68
2022/02/16 10:41:58;;;;;;;52.67;10.63;;;11.50;99.90;;;;;;4997920;28;25071;-71
2022/02/16 10:44:33;;;;;;;42.97;8.63;;;11.50;99.90;;;;;;5027509;28;25070;-69
2022/02/16 10:47:06;;;;;;;48.65;8.32;;;11.50;99.90;;;;;;5009728;28;25130;-69
2022/02/16 10:49:36;;;;;;;42.67;8.40;;;11.60;99.90;;;;;;5028309;28;25108;-70
2022/02/16 10:52:22;;;;;;;43.38;9.85;;;11.50;99.90;;;;;;5027041;28;25144;-69
2022/02/16 10:54:58;;;;;;;38.38;8.82;;;11.50;99.90;;;;;;5026860;28;25098;-69
2022/02/16 10:57:24;;;;;;;48.65;9.07;;;11.50;99.90;;;;;;5028615;28;25167;-71
2022/02/16 10:59:58;;;;;;;38.80;7.85;;;11.50;99.90;;;;;;5027684;28;25097;-70
2022/02/16 11:02:24;;;;;;;35.60;7.15;;;11.60;99.90;;;;;;5008561;28;25059;-70
2022/02/16 11:04:53;;;;;;;45.70;8.88;;;11.60;99.90;;;;;;5026819;28;25073;-67
2022/02/16 11:07:21;;;;;;;38.55;7.45;;;11.60;99.90;;;;;;5033322;28;25076;-70
2022/02/16 11:09:54;;;;;;;40.63;6.70;;;11.60;99.90;;;;;;5036599;28;25076;-71
2022/02/16 11:12:20;;;;;;;48.67;9.85;;;11.50;99.90;;;;;;5028796;28;25103;-69
2022/02/16 11:14:46;;;;;;;29.55;6.95;;;11.60;99.90;;;;;;5029687;28;25057;-69
2022/02/16 11:17:12;;;;;;;32.85;6.43;;;11.60;99.90;;;;;;5017879;28;25068;-67
2022/02/16 11:19:42;;;;;;;47.85;8.65;;;11.60;99.90;;;;;;5037038;28;25081;-69
2022/02/16 11:22:10;;;;;;;35.97;7.13;;;11.60;99.90;;;;;;5035600;28;25112;-69
2022/02/16 11:24:41;;;;;;;35.22;8.07;;;11.60;99.90;;;;;;5036956;28;25109;-71
2022/02/16 11:27:38;;;;;;;38.95;6.45;;;11.50;99.90;;;;;;5020605;28;25080;-71
2022/02/16 11:30:08;;;;;;;36.35;6.22;;;11.50;99.90;;;;;;5039394;28;25050;-70
2022/02/16 11:32:38;;;;;;;44.55;7.97;;;11.60;99.90;;;;;;5012486;28;25057;-72
2022/02/16 11:35:26;;;;;;;42.58;7.28;;;11.60;99.90;;;;;;4999524;28;25061;-71
2022/02/16 11:38:12;;;;;;;33.80;6.72;;;11.70;99.90;;;;;;5001009;28;25082;-73
2022/02/16 11:40:39;;;;;;;33.60;6.93;;;11.70;99.90;;;;;;5008821;28;25064;-72
2022/02/16 11:43:05;;;;;;;37.15;7.63;;;11.70;99.90;;;;;;5020827;28;25087;-72
2022/02/16 11:46:05;;;;;;;34.05;7.45;;;11.70;99.90;;;;;;5018902;28;25144;-68
2022/02/16 11:48:40;;;;;;;35.45;6.82;;;11.80;99.90;;;;;;5010573;28;25064;-71
2022/02/16 11:51:25;;;;;;;32.88;7.80;;;11.90;99.90;;;;;;5021080;28;25054;-70
2022/02/16 11:53:51;;;;;;;26.17;6.32;;;11.90;99.90;;;;;;5019841;28;25058;-71
2022/02/16 11:56:20;;;;;;;33.55;6.63;;;12.00;99.90;;;;;;5008182;28;25073;-71
2022/02/16 11:59:11;;;;;;;34.78;6.65;;;12.00;99.90;;;;;;5023663;28;25056;-72
2022/02/16 12:02:13;;;;;;;28.40;5.95;;;12.00;99.90;;;;;;5007014;28;25061;-71
2022/02/16 12:04:53;;;;;;;33.70;8.02;;;12.00;99.90;;;;;;5008964;28;25051;-70
2022/02/16 12:07:23;;;;;;;29.65;7.50;;;12.10;99.90;;;;;;5006088;28;25125;-73
2022/02/16 12:10:13;;;;;;;35.08;7.35;;;12.10;99.90;;;;;;5007621;28;25078;-71
2022/02/16 12:12:40;;;;;;;31.08;7.25;;;12.20;99.90;;;;;;5007310;28;25065;-70
2022/02/16 12:15:07;;;;;;;34.47;7.15;;;12.20;99.90;;;;;;5005686;28;25114;-72
2022/02/16 12:17:34;;;;;;;35.47;7.30;;;12.20;99.90;;;;;;4988836;28;25094;-73
2022/02/16 12:20:01;;;;;;;40.05;8.43;;;12.10;99.90;;;;;;5005521;28;25116;-71
2022/02/16 12:22:27;;;;;;;31.88;6.55;;;12.20;99.90;;;;;;5005623;28;25072;-71
2022/02/16 12:24:52;;;;;;;34.58;7.60;;;12.20;99.90;;;;;;5006679;28;25082;-71
2022/02/16 12:27:22;;;;;;;33.88;8.38;;;12.20;99.90;;;;;;5005270;28;25090;-68
2022/02/16 12:29:48;;;;;;;46.92;8.15;;;12.30;99.90;;;;;;5006892;28;25126;-70
2022/02/16 12:32:19;;;;;;;38.90;8.18;;;12.30;99.90;;;;;;4996348;28;25123;-70
2022/02/16 12:34:46;;;;;;;35.08;7.53;;;12.30;99.90;;;;;;4987115;28;25228;-71
2022/02/16 12:37:15;;;;;;;42.20;7.75;;;12.30;99.90;;;;;;4994431;28;25060;-73
2022/02/16 12:39:51;;;;;;;37.22;8.18;;;12.30;99.90;;;;;;4988025;28;25087;-72